Time;durP1;ratioP1;P1;durP2;ratioP2;P2;SDS_P1;SDS_P2;PMS_P1;PMS_P2;Temp;Humidity;BMP_temperature;BMP_pressure;BME280_temperature;BME280_humidity;BME280_pressure;Samples;Min_cycle;Max_cycle;Signal;HPM_P1;HPM_P2
2023/01/17 00:00:29;;;;;;;;;;;4.10;99.90;;;;;;5086411;28;20347;-70
2023/01/17 00:02:55;;;;;;;;;;;4.20;99.90;;;;;;5087956;28;19904;-70
2023/01/17 00:11:09;;;;;;;;;;;4.20;99.90;;;;;;5028235;28;19916;-68
2023/01/17 00:13:35;;;;;;;;;;;4.10;99.90;;;;;;5028632;28;19905;-70
2023/01/17 00:16:00;;;;;;;;;;;4.10;99.90;;;;;;5015066;28;20456;-70
2023/01/17 00:18:26;;;;;;;;;;;4.10;99.90;;;;;;5028204;28;19919;-70
2023/01/17 01:35:43;;;;;;;;;;;3.00;99.90;;;;;;5088894;28;19904;-71
2023/01/17 01:38:08;;;;;;;;;;;2.70;99.90;;;;;;5089677;28;20364;-71
2023/01/17 01:40:34;;;;;;;;;;;2.60;99.90;;;;;;5089429;28;19904;-71
2023/01/17 01:43:04;;;;;;;;;;;2.50;99.90;;;;;;5080605;28;19924;-71
2023/01/17 01:45:31;;;;;;;;;;;2.30;99.90;;;;;;5080139;28;19908;-72
2023/01/17 01:48:02;;;;;;;;;;;2.30;99.90;;;;;;5089285;28;19930;-72
2023/01/17 01:50:29;;;;;;;;;;;2.10;99.90;;;;;;5088954;28;19908;-71
2023/01/17 01:52:56;;;;;;;;;;;2.20;99.90;;;;;;5093151;28;19904;-69
2023/01/17 01:55:26;;;;;;;;;;;2.20;99.90;;;;;;5091271;28;19911;-69
2023/01/17 01:57:53;;;;;;;;;;;2.20;99.90;;;;;;5092604;28;19908;-70
2023/01/17 02:00:22;;;;;;;;;;;2.20;99.90;;;;;;5092119;28;19904;-71
2023/01/17 02:02:48;;;;;;;;;;;2.20;99.90;;;;;;5091627;28;20330;-70
2023/01/17 02:05:15;;;;;;;;;;;2.20;99.90;;;;;;5092158;28;19904;-71
2023/01/17 02:07:47;;;;;;;;;;;2.20;99.90;;;;;;5092071;28;19904;-71
2023/01/17 02:10:12;;;;;;;;;;;2.20;99.90;;;;;;5072471;28;19995;-72
2023/01/17 02:12:38;;;;;;;;;;;2.20;99.90;;;;;;5085284;28;20061;-71
2023/01/17 02:15:06;;;;;;;;;;;2.20;99.90;;;;;;5082431;28;19915;-71
2023/01/17 02:17:53;;;;;;;;;;;2.10;99.90;;;;;;5092276;28;20268;-69
2023/01/17 02:20:21;;;;;;;;;;;2.10;99.90;;;;;;5091675;28;19904;-69
2023/01/17 02:23:18;;;;;;;;;;;2.00;99.90;;;;;;5092980;28;20089;-70
2023/01/17 02:25:43;;;;;;;;;;;2.00;99.90;;;;;;5092080;28;19930;-69
2023/01/17 02:28:12;;;;;;;;;;;2.00;99.90;;;;;;5085749;28;19912;-70
2023/01/17 02:30:37;;;;;;;;;;;2.00;99.90;;;;;;5092219;28;19949;-69
2023/01/17 02:33:15;;;;;;;;;;;2.20;99.90;;;;;;5092417;28;19904;-69
2023/01/17 02:35:47;;;;;;;;;;;2.20;99.90;;;;;;5092097;28;19904;-69
2023/01/17 02:38:23;;;;;;;;;;;3.20;99.90;;;;;;5091950;28;20375;-69
2023/01/17 02:40:52;;;;;;;;;;;2.30;99.90;;;;;;5090800;28;19911;-69
2023/01/17 02:43:19;;;;;;;;;;;2.40;99.90;;;;;;5091322;28;20644;-69
2023/01/17 02:45:45;;;;;;;;;;;2.50;99.90;;;;;;5091763;28;19923;-69
2023/01/17 02:48:13;;;;;;;;;;;3.00;99.90;;;;;;5090973;28;19990;-69
2023/01/17 02:50:58;;;;;;;;;;;2.40;99.90;;;;;;5090999;28;19904;-69
2023/01/17 02:53:42;;;;;;;;;;;2.40;99.90;;;;;;5089789;28;19927;-69
2023/01/17 02:56:20;;;;;;;;;;;2.40;99.90;;;;;;5091650;28;19915;-69
2023/01/17 02:58:55;;;;;;;;;;;2.40;99.90;;;;;;5078997;28;20352;-69
2023/01/17 03:01:20;;;;;;;;;;;2.50;99.90;;;;;;5090374;28;19910;-69
2023/01/17 03:03:57;;;;;;;;;;;2.40;99.90;;;;;;5091608;28;19908;-70
2023/01/17 03:06:26;;;;;;;;;;;2.40;99.90;;;;;;5089663;28;19971;-69
2023/01/17 03:08:52;;;;;;;;;;;2.20;99.90;;;;;;5090828;28;20048;-69
2023/01/17 03:11:17;;;;;;;;;;;2.00;99.90;;;;;;5077006;28;20421;-69
2023/01/17 03:13:43;;;;;;;;;;;1.90;99.90;;;;;;5090686;28;19911;-69
2023/01/17 03:16:19;;;;;;;;;;;1.80;99.90;;;;;;5087875;28;19991;-69
2023/01/17 03:18:45;;;;;;;;;;;1.80;99.90;;;;;;5080688;28;19904;-70
2023/01/17 03:21:11;;;;;;;;;;;1.90;99.90;;;;;;5074640;28;19915;-69
2023/01/17 03:23:36;;;;;;;;;;;1.90;99.90;;;;;;5070499;28;19909;-69
2023/01/17 03:26:01;;;;;;;;;;;2.00;99.90;;;;;;5075656;28;20352;-69
2023/01/17 03:28:27;;;;;;;;;;;1.90;99.90;;;;;;5090379;28;19957;-69
2023/01/17 03:30:52;;;;;;;;;;;1.70;99.90;;;;;;5085629;28;19912;-69
2023/01/17 03:33:18;;;;;;;;;;;2.00;99.90;;;;;;5081900;28;20003;-70
2023/01/17 03:35:44;;;;;;;;;;;1.70;99.90;;;;;;5088537;28;19904;-69
2023/01/17 03:38:09;;;;;;;;;;;1.60;99.90;;;;;;5081996;28;19913;-69
2023/01/17 03:40:35;;;;;;;;;;;1.50;99.90;;;;;;5071897;28;20462;-69
2023/01/17 03:43:00;;;;;;;;;;;1.50;99.90;;;;;;5071503;28;19923;-70
2023/01/17 03:45:26;;;;;;;;;;;1.60;99.90;;;;;;5072071;28;19909;-69
2023/01/17 03:47:52;;;;;;;;;;;1.40;99.90;;;;;;5071779;28;19904;-70
2023/01/17 03:50:18;;;;;;;;;;;1.40;99.90;;;;;;5071436;28;19961;-69
2023/01/17 03:52:44;;;;;;;;;;;1.30;99.90;;;;;;5069828;28;20011;-69
2023/01/17 03:55:09;;;;;;;;;;;1.30;99.90;;;;;;5073544;28;19958;-69
2023/01/17 03:57:35;;;;;;;;;;;1.30;99.90;;;;;;5080443;28;19919;-69
2023/01/17 04:00:00;;;;;;;;;;;1.30;99.90;;;;;;5071487;28;20396;-69
2023/01/17 04:02:25;;;;;;;;;;;1.20;99.90;;;;;;5071416;28;20284;-69
2023/01/17 04:04:51;;;;;;;;;;;1.20;99.90;;;;;;5072132;28;19904;-69
2023/01/17 04:07:16;;;;;;;;;;;1.40;99.90;;;;;;5072786;28;19904;-69
2023/01/17 04:09:42;;;;;;;;;;;1.20;99.90;;;;;;5084380;28;19909;-69
2023/01/17 04:12:08;;;;;;;;;;;1.20;99.90;;;;;;5070651;28;19912;-69
2023/01/17 04:14:34;;;;;;;;;;;1.30;99.90;;;;;;5070871;28;20424;-69
2023/01/17 04:17:00;;;;;;;;;;;1.40;99.90;;;;;;5082529;28;19939;-69
2023/01/17 04:19:26;;;;;;;;;;;1.30;99.90;;;;;;5077150;28;19931;-69
2023/01/17 04:21:51;;;;;;;;;;;1.40;99.90;;;;;;5073378;28;19904;-69
2023/01/17 04:24:16;;;;;;;;;;;1.30;99.90;;;;;;5090024;28;19911;-69
2023/01/17 04:26:42;;;;;;;;;;;1.30;99.90;;;;;;5094515;28;19912;-69
2023/01/17 04:29:07;;;;;;;;;;;1.30;99.90;;;;;;5089480;28;19911;-69
2023/01/17 04:31:33;;;;;;;;;;;1.30;99.90;;;;;;5094842;28;19980;-69
2023/01/17 04:33:58;;;;;;;;;;;1.30;99.90;;;;;;5090532;28;19908;-69
2023/01/17 04:36:24;;;;;;;;;;;1.40;99.90;;;;;;5081396;28;19904;-69
2023/01/17 04:38:49;;;;;;;;;;;2.40;99.90;;;;;;5075552;28;19908;-69
2023/01/17 04:41:15;;;;;;;;;;;1.40;99.90;;;;;;5071647;28;19927;-69
2023/01/17 04:43:40;;;;;;;;;;;1.40;99.90;;;;;;5074138;28;20051;-69
2023/01/17 04:46:08;;;;;;;;;;;1.50;99.90;;;;;;5072363;28;19904;-69
2023/01/17 04:48:34;;;;;;;;;;;1.40;99.90;;;;;;5073624;28;20369;-69
2023/01/17 04:51:00;;;;;;;;;;;1.40;99.90;;;;;;5071856;28;20005;-69
2023/01/17 04:53:26;;;;;;;;;;;1.40;99.90;;;;;;5084716;28;19958;-69
2023/01/17 04:55:51;;;;;;;;;;;1.30;99.90;;;;;;5072276;28;20005;-69
2023/01/17 04:58:17;;;;;;;;;;;1.40;99.90;;;;;;5072920;28;19909;-69
2023/01/17 05:00:42;;;;;;;;;;;1.40;99.90;;;;;;5088541;28;19914;-69
2023/01/17 05:03:08;;;;;;;;;;;1.40;99.90;;;;;;5091801;28;19944;-69
2023/01/17 05:05:33;;;;;;;;;;;1.40;99.90;;;;;;5087453;28;20364;-69
2023/01/17 05:07:59;;;;;;;;;;;1.40;99.90;;;;;;5085232;28;19999;-69
2023/01/17 05:10:24;;;;;;;;;;;1.40;99.90;;;;;;5080085;28;20277;-69
2023/01/17 05:12:59;;;;;;;;;;;1.40;99.90;;;;;;5083015;28;19952;-69
2023/01/17 05:15:25;;;;;;;;;;;1.40;99.90;;;;;;5080516;28;19904;-69
2023/01/17 05:17:51;;;;;;;;;;;3.10;99.90;;;;;;5089962;28;19971;-69
2023/01/17 05:20:16;;;;;;;;;;;1.40;99.90;;;;;;5089875;28;19930;-70
2023/01/17 05:22:42;;;;;;;;;;;1.50;99.90;;;;;;5089065;28;19904;-69
2023/01/17 05:25:07;;;;;;;;;;;1.60;99.90;;;;;;5089000;28;19915;-69
2023/01/17 05:27:33;;;;;;;;;;;1.50;99.90;;;;;;5079762;28;20376;-69
2023/01/17 05:29:58;;;;;;;;;;;1.50;99.90;;;;;;5093724;28;20391;-69
2023/01/17 05:32:24;;;;;;;;;;;1.40;99.90;;;;;;5092633;28;19908;-69
2023/01/17 05:34:49;;;;;;;;;;;1.40;99.90;;;;;;5093011;28;19957;-69
2023/01/17 05:37:15;;;;;;;;;;;1.30;99.90;;;;;;5092576;28;19911;-69
2023/01/17 05:39:41;;;;;;;;;;;1.30;99.90;;;;;;5093282;28;19904;-69
2023/01/17 05:42:06;;;;;;;;;;;1.40;99.90;;;;;;5091828;28;19992;-69
2023/01/17 05:44:31;;;;;;;;;;;1.30;99.90;;;;;;5092648;28;19904;-69
2023/01/17 05:46:57;;;;;;;;;;;1.30;99.90;;;;;;5092253;28;20418;-69
2023/01/17 05:49:22;;;;;;;;;;;1.40;99.90;;;;;;5092020;28;20002;-69
2023/01/17 05:51:48;;;;;;;;;;;1.30;99.90;;;;;;5088415;28;19919;-69
2023/01/17 05:54:13;;;;;;;;;;;1.30;99.90;;;;;;5081716;28;19904;-69
2023/01/17 05:56:39;;;;;;;;;;;1.20;99.90;;;;;;5081073;28;19912;-69
2023/01/17 05:59:04;;;;;;;;;;;1.20;99.90;;;;;;5081392;28;19994;-69
2023/01/17 06:01:30;;;;;;;;;;;1.10;99.90;;;;;;5081960;28;19904;-69
2023/01/17 06:03:55;;;;;;;;;;;1.00;99.90;;;;;;5081621;28;19908;-69
2023/01/17 06:06:21;;;;;;;;;;;1.00;99.90;;;;;;5082130;28;19904;-68
2023/01/17 06:08:46;;;;;;;;;;;1.00;99.90;;;;;;5082186;28;20373;-69
2023/01/17 06:11:12;;;;;;;;;;;1.00;99.90;;;;;;5078208;28;20369;-69
2023/01/17 06:13:37;;;;;;;;;;;1.00;99.90;;;;;;5093154;28;19915;-68
2023/01/17 06:16:03;;;;;;;;;;;0.90;99.90;;;;;;5089733;28;20273;-69
2023/01/17 06:18:29;;;;;;;;;;;0.90;99.90;;;;;;5079309;28;19978;-69
2023/01/17 06:20:55;;;;;;;;;;;0.90;99.90;;;;;;5078839;28;20315;-69
2023/01/17 06:23:21;;;;;;;;;;;0.90;99.90;;;;;;5081954;28;19965;-69
2023/01/17 06:25:47;;;;;;;;;;;0.80;99.90;;;;;;5083684;28;19907;-69
2023/01/17 06:28:14;;;;;;;;;;;0.80;99.90;;;;;;5081744;28;19910;-69
2023/01/17 06:30:39;;;;;;;;;;;0.80;99.90;;;;;;5083578;28;20371;-69
2023/01/17 06:33:05;;;;;;;;;;;0.90;99.90;;;;;;5081509;28;19939;-69
2023/01/17 06:35:31;;;;;;;;;;;0.70;99.90;;;;;;5083062;28;19916;-69
2023/01/17 06:37:58;;;;;;;;;;;0.70;99.90;;;;;;5080798;28;19911;-69
2023/01/17 06:40:24;;;;;;;;;;;0.60;99.90;;;;;;5082698;28;19919;-70
2023/01/17 06:42:50;;;;;;;;;;;0.60;99.90;;;;;;5080259;28;21147;-68
2023/01/17 06:45:16;;;;;;;;;;;0.70;99.90;;;;;;5082177;28;19923;-69
2023/01/17 06:47:42;;;;;;;;;;;0.60;99.90;;;;;;5087992;28;19908;-68
2023/01/17 06:50:08;;;;;;;;;;;0.70;99.90;;;;;;5082032;28;20311;-69
2023/01/17 06:52:33;;;;;;;;;;;0.70;99.90;;;;;;5081566;28;20314;-69
2023/01/17 06:54:59;;;;;;;;;;;0.80;99.90;;;;;;5080828;28;19916;-69
2023/01/17 06:57:24;;;;;;;;;;;0.80;99.90;;;;;;5085259;28;19912;-69
2023/01/17 06:59:50;;;;;;;;;;;0.80;99.90;;;;;;5081879;28;19958;-69
2023/01/17 07:02:15;;;;;;;;;;;0.90;99.90;;;;;;5082268;28;19915;-69
2023/01/17 07:04:41;;;;;;;;;;;0.80;99.90;;;;;;5085042;28;19958;-69
2023/01/17 07:07:06;;;;;;;;;;;1.00;99.90;;;;;;5102987;28;19904;-69
2023/01/17 07:09:32;;;;;;;;;;;1.00;99.90;;;;;;5084578;28;19974;-70
2023/01/17 07:12:00;;;;;;;;;;;1.00;99.90;;;;;;5080382;28;19908;-69
2023/01/17 07:14:29;;;;;;;;;;;1.00;99.90;;;;;;5080584;28;20006;-69
2023/01/17 07:16:55;;;;;;;;;;;1.00;99.90;;;;;;5102321;28;20376;-69
2023/01/17 07:19:20;;;;;;;;;;;0.80;99.90;;;;;;5075844;28;19904;-70
2023/01/17 07:21:49;;;;;;;;;;;0.90;99.90;;;;;;5072540;28;20321;-70
2023/01/17 07:24:14;;;;;;;;;;;1.00;99.90;;;;;;5072917;28;19912;-70
2023/01/17 07:26:39;;;;;;;;;;;1.10;99.90;;;;;;5072495;28;19908;-70
2023/01/17 07:29:05;;;;;;;;;;;1.10;99.90;;;;;;5071928;28;19912;-70
2023/01/17 07:31:35;;;;;;;;;;;1.00;99.90;;;;;;5072028;28;19956;-70
2023/01/17 07:34:01;;;;;;;;;;;2.30;99.90;;;;;;5072848;28;19991;-70
2023/01/17 07:36:26;;;;;;;;;;;1.10;99.90;;;;;;5072148;28;19946;-70
2023/01/17 07:38:52;;;;;;;;;;;1.10;99.90;;;;;;5072824;28;19904;-70
2023/01/17 07:41:17;;;;;;;;;;;1.20;99.90;;;;;;5071763;28;20432;-70
2023/01/17 07:43:43;;;;;;;;;;;1.20;99.90;;;;;;5081562;28;19904;-70
2023/01/17 07:46:08;;;;;;;;;;;1.10;99.90;;;;;;5087754;28;19950;-70
2023/01/17 07:48:34;;;;;;;;;;;1.10;99.90;;;;;;5080539;28;19990;-71
2023/01/17 07:50:59;;;;;;;;;;;1.10;99.90;;;;;;5090951;28;20007;-71
2023/01/17 07:53:26;;;;;;;;;;;1.00;99.90;;;;;;5081294;28;19998;-71
2023/01/17 07:55:52;;;;;;;;;;;1.00;99.90;;;;;;5078961;28;20602;-71
2023/01/17 07:58:17;;;;;;;;;;;0.90;99.90;;;;;;5100753;28;20002;-70
2023/01/17 08:00:43;;;;;;;;;;;-0.80;99.90;;;;;;5080087;28;19905;-70
2023/01/17 08:03:16;;;;;;;;;;;0.70;99.90;;;;;;5077600;28;20326;-70
2023/01/17 08:05:42;;;;;;;;;;;0.80;99.90;;;;;;5083610;28;19904;-71
2023/01/17 08:08:08;;;;;;;;;;;0.70;99.90;;;;;;5082390;28;20318;-70
2023/01/17 08:10:33;;;;;;;;;;;0.70;99.90;;;;;;5069371;28;20023;-70
2023/01/17 08:12:59;;;;;;;;;;;0.70;99.90;;;;;;5076558;28;19955;-70
2023/01/17 08:15:25;;;;;;;;;;;0.70;99.90;;;;;;5080682;28;19908;-71
2023/01/17 08:17:56;;;;;;;;;;;0.70;99.90;;;;;;5073028;28;19987;-70
2023/01/17 08:20:22;;;;;;;;;;;0.50;99.90;;;;;;5074826;28;20361;-71
2023/01/17 08:22:47;;;;;;;;;;;0.50;99.90;;;;;;5073622;28;19919;-70
2023/01/17 08:25:13;;;;;;;;;;;0.60;99.90;;;;;;5092955;28;19912;-70
2023/01/17 08:27:38;;;;;;;;;;;0.60;99.90;;;;;;5087648;28;19911;-70
2023/01/17 08:30:05;;;;;;;;;;;0.60;99.90;;;;;;5088850;28;19904;-70
2023/01/17 08:32:30;;;;;;;;;;;0.60;99.90;;;;;;5081912;28;19916;-70
2023/01/17 08:34:56;;;;;;;;;;;0.70;99.90;;;;;;5081982;28;19908;-70
2023/01/17 08:37:22;;;;;;;;;;;0.70;99.90;;;;;;5079172;28;20414;-70
2023/01/17 08:39:47;;;;;;;;;;;2.20;99.90;;;;;;5081705;28;20307;-70
2023/01/17 08:42:13;;;;;;;;;;;0.80;99.90;;;;;;5077674;28;19916;-70
2023/01/17 08:44:38;;;;;;;;;;;0.90;99.90;;;;;;5088270;28;20407;-70
2023/01/17 08:47:04;;;;;;;;;;;0.90;99.90;;;;;;5079082;28;20373;-69
2023/01/17 08:49:29;;;;;;;;;;;0.90;99.90;;;;;;5079773;28;19998;-69
2023/01/17 08:51:55;;;;;;;;;;;1.00;99.90;;;;;;5075864;28;19991;-69
2023/01/17 08:54:21;;;;;;;;;;;1.00;99.90;;;;;;5080601;28;19919;-69
2023/01/17 08:56:47;;;;;;;;;;;1.00;99.90;;;;;;5073879;28;19909;-69
2023/01/17 08:59:13;;;;;;;;;;;1.10;99.90;;;;;;5080285;28;19933;-69
2023/01/17 09:01:44;;;;;;;;;;;1.10;99.90;;;;;;5077509;28;20344;-69
2023/01/17 09:04:10;;;;;;;;;;;1.10;99.90;;;;;;5091459;28;19908;-69
2023/01/17 09:06:36;;;;;;;;;;;2.10;99.90;;;;;;5087100;28;20293;-69
2023/01/17 09:09:04;;;;;;;;;;;1.20;99.90;;;;;;5084914;28;19908;-69
2023/01/17 09:11:29;;;;;;;;;;;1.20;99.90;;;;;;5072637;28;19908;-69
2023/01/17 09:13:54;;;;;;;;;;;1.20;99.90;;;;;;5073948;28;19905;-69
2023/01/17 09:16:20;;;;;;;;;;;1.20;99.90;;;;;;5074338;28;20372;-69
2023/01/17 09:18:45;;;;;;;;;;;1.20;99.90;;;;;;5074216;28;19908;-69
2023/01/17 09:21:12;;;;;;;;;;;1.30;99.90;;;;;;5077000;28;19904;-70
2023/01/17 09:23:38;;;;;;;;;;;1.20;99.90;;;;;;5081407;28;19912;-69
2023/01/17 09:26:03;;;;;;;;;;;1.20;99.90;;;;;;5086290;28;19918;-70
2023/01/17 09:28:29;;;;;;;;;;;1.20;99.90;;;;;;5092669;28;19916;-69
2023/01/17 09:30:54;;;;;;;;;;;1.20;99.90;;;;;;5084985;28;20011;-69
2023/01/17 09:33:22;;;;;;;;;;;1.30;99.90;;;;;;5075914;28;19943;-69
2023/01/17 09:35:47;;;;;;;;;;;1.40;99.90;;;;;;5079160;28;19904;-69
2023/01/17 09:38:13;;;;;;;;;;;1.30;99.90;;;;;;5078091;28;19905;-69
2023/01/17 09:40:42;;;;;;;;;;;1.30;99.90;;;;;;5078340;28;19911;-69
2023/01/17 09:43:16;;;;;;;;;;;1.30;99.90;;;;;;5075649;28;19956;-69
2023/01/17 09:45:41;;;;;;;;;;;1.30;99.90;;;;;;5077357;28;19905;-70
2023/01/17 09:48:08;;;;;;;;;;;1.40;99.90;;;;;;5079410;28;19938;-70
2023/01/17 09:50:37;;;;;;;;;;;2.20;99.90;;;;;;5076856;28;20357;-70
2023/01/17 09:53:11;;;;;;;;;;;1.40;99.90;;;;;;5096772;28;20280;-69
2023/01/17 09:55:47;;;;;;;;;;;1.60;99.90;;;;;;5079584;28;20001;-69
2023/01/17 09:58:32;;;;;;;;;;;1.70;99.90;;;;;;5083656;28;20379;-70
2023/01/17 10:01:17;;;;;;;;;;;1.70;99.90;;;;;;5073220;28;19908;-69
2023/01/17 10:04:01;;;;;;;;;;;1.70;99.90;;;;;;5082843;28;19908;-69
2023/01/17 10:06:49;;;;;;;;;;;1.70;99.90;;;;;;5091262;28;19939;-69
2023/01/17 10:09:18;;;;;;;;;;;1.70;99.90;;;;;;5085001;28;19934;-70
2023/01/17 10:12:03;;;;;;;;;;;1.70;99.90;;;;;;5089672;28;20250;-69
2023/01/17 10:14:49;;;;;;;;;;;1.70;99.90;;;;;;5088453;28;19967;-69
2023/01/17 10:17:27;;;;;;;;;;;1.70;99.90;;;;;;5090287;28;20367;-69
2023/01/17 10:20:11;;;;;;;;;;;1.70;99.90;;;;;;5081489;28;19992;-69
2023/01/17 10:22:54;;;;;;;;;;;1.70;99.90;;;;;;5082933;28;19908;-70
2023/01/17 10:25:26;;;;;;;;;;;1.70;99.90;;;;;;5083966;28;20000;-70
2023/01/17 10:28:09;;;;;;;;;;;1.80;99.90;;;;;;5082894;28;19915;-69
2023/01/17 10:30:42;;;;;;;;;;;1.80;99.90;;;;;;5079605;28;19999;-69
2023/01/17 10:33:16;;;;;;;;;;;1.90;99.90;;;;;;5085305;28;19958;-69
2023/01/17 10:35:47;;;;;;;;;;;1.90;99.90;;;;;;5092342;28;19948;-71
2023/01/17 10:38:13;;;;;;;;;;;2.00;99.90;;;;;;5087938;28;19947;-70
2023/01/17 10:40:45;;;;;;;;;;;2.00;99.90;;;;;;5086911;28;19909;-69
2023/01/17 10:43:31;;;;;;;;;;;2.00;99.90;;;;;;5084038;28;19926;-70
2023/01/17 10:45:56;;;;;;;;;;;2.00;99.90;;;;;;5087997;28;19908;-69
2023/01/17 10:48:25;;;;;;;;;;;2.00;99.90;;;;;;5087558;28;19957;-69
2023/01/17 10:50:53;;;;;;;;;;;2.00;99.90;;;;;;5089631;28;19978;-69
2023/01/17 10:53:28;;;;;;;;;;;2.10;99.90;;;;;;5086837;28;19947;-69
2023/01/17 10:55:54;;;;;;;;;;;2.20;99.90;;;;;;5079109;28;19904;-70
2023/01/17 10:58:20;;;;;;;;;;;2.20;99.90;;;;;;5097163;28;19923;-69
2023/01/17 11:00:57;;;;;;;;;;;2.10;99.90;;;;;;5089086;28;19911;-69
2023/01/17 11:03:23;;;;;;;;;;;2.20;99.90;;;;;;5086385;28;19939;-69
2023/01/17 11:06:08;;;;;;;;;;;2.30;99.90;;;;;;5098286;28;19990;-69
2023/01/17 11:08:49;;;;;;;;;;;2.30;99.90;;;;;;5085520;28;20440;-69
2023/01/17 11:11:15;;;;;;;;;;;2.40;99.90;;;;;;5082107;28;19920;-70
2023/01/17 11:13:40;;;;;;;;;;;2.30;99.90;;;;;;5080805;28;19908;-71
2023/01/17 11:16:08;;;;;;;;;;;2.30;99.90;;;;;;5080793;28;19977;-69
2023/01/17 11:18:36;;;;;;;;;;;2.40;99.90;;;;;;5074924;28;19904;-69
2023/01/17 11:21:22;;;;;;;;;;;2.30;99.90;;;;;;5075218;28;20418;-70
2023/01/17 11:23:48;;;;;;;;;;;2.40;99.90;;;;;;5075178;28;19909;-70
2023/01/17 11:26:24;;;;;;;;;;;2.30;99.90;;;;;;5075344;28;19904;-69
2023/01/17 11:28:51;;;;;;;;;;;2.30;99.90;;;;;;5076746;28;20369;-70
2023/01/17 11:31:16;;;;;;;;;;;2.30;99.90;;;;;;5081316;28;19919;-69
2023/01/17 11:33:46;;;;;;;;;;;2.30;99.90;;;;;;5084486;28;19908;-69
2023/01/17 11:36:19;;;;;;;;;;;2.30;99.90;;;;;;5083252;28;19904;-69
2023/01/17 11:39:03;;;;;;;;;;;2.30;99.90;;;;;;5084054;28;19911;-70
2023/01/17 11:41:39;;;;;;;;;;;2.30;99.90;;;;;;5076475;28;19946;-70
2023/01/17 11:44:23;;;;;;;;;;;2.30;99.90;;;;;;5087862;28;20373;-69
2023/01/17 11:47:07;;;;;;;;;;;2.30;99.90;;;;;;5089447;28;19914;-70
2023/01/17 11:49:32;;;;;;;;;;;2.40;99.90;;;;;;5098861;28;20364;-69
2023/01/17 11:51:58;;;;;;;;;;;2.40;99.90;;;;;;5104246;28;19916;-69
2023/01/17 11:54:26;;;;;;;;;;;2.40;99.90;;;;;;5087859;28;19911;-70
2023/01/17 11:56:56;;;;;;;;;;;2.40;99.90;;;;;;5085835;28;19950;-69
2023/01/17 11:59:21;;;;;;;;;;;2.50;99.90;;;;;;5079595;28;19908;-69
2023/01/17 12:02:14;;;;;;;;;;;2.40;99.90;;;;;;5076726;28;19928;-70
2023/01/17 12:04:45;;;;;;;;;;;2.40;99.90;;;;;;5055242;28;19908;-69
2023/01/17 12:07:17;;;;;;;;;;;2.30;99.90;;;;;;5076645;28;19904;-69
2023/01/17 12:09:55;;;;;;;;;;;2.30;99.90;;;;;;5078403;28;19998;-69
2023/01/17 12:15:24;;;;;;;;;;;2.30;99.90;;;;;;5078891;28;20012;-69
2023/01/17 12:18:08;;;;;;;;;;;2.30;99.90;;;;;;5073595;28;19950;-69
2023/01/17 12:20:45;;;;;;;;;;;2.30;99.90;;;;;;5083313;28;20037;-69
2023/01/17 12:23:13;;;;;;;;;;;2.20;99.90;;;;;;5088544;28;19908;-68
2023/01/17 12:25:53;;;;;;;;;;;2.20;99.90;;;;;;5084496;28;19995;-70
2023/01/17 12:28:18;;;;;;;;;;;2.20;99.90;;;;;;5097463;28;19994;-69
2023/01/17 12:30:50;;;;;;;;;;;2.20;99.90;;;;;;5090649;28;19940;-69
2023/01/17 12:33:21;;;;;;;;;;;2.30;99.90;;;;;;5074030;28;20426;-69
2023/01/17 12:35:58;;;;;;;;;;;2.30;99.90;;;;;;5075489;28;19905;-69
2023/01/17 12:38:26;;;;;;;;;;;2.20;99.90;;;;;;5078260;28;19914;-69
2023/01/17 12:40:52;;;;;;;;;;;2.20;99.90;;;;;;5085022;28;19916;-69
2023/01/17 12:43:23;;;;;;;;;;;2.30;99.90;;;;;;5080942;28;20387;-70
2023/01/17 12:45:50;;;;;;;;;;;2.30;99.90;;;;;;5086483;28;19957;-69
2023/01/17 12:48:17;;;;;;;;;;;2.40;99.90;;;;;;5082790;28;19999;-69
2023/01/17 12:50:47;;;;;;;;;;;2.30;99.90;;;;;;5081613;28;19908;-69
2023/01/17 12:53:13;;;;;;;;;;;2.40;99.90;;;;;;5074620;28;19926;-69
2023/01/17 12:55:38;;;;;;;;;;;2.40;99.90;;;;;;5101557;28;19907;-68
2023/01/17 12:58:06;;;;;;;;;;;2.50;99.90;;;;;;5084463;28;20006;-69
2023/01/17 13:00:34;;;;;;;;;;;2.40;99.90;;;;;;5082394;28;19908;-68
2023/01/17 13:03:08;;;;;;;;;;;2.50;99.90;;;;;;5086115;28;19930;-70
2023/01/17 13:05:41;;;;;;;;;;;2.40;99.90;;;;;;5106365;28;19938;-68
2023/01/17 13:08:16;;;;;;;;;;;2.40;99.90;;;;;;5091800;28;19962;-69
2023/01/17 13:10:54;;;;;;;;;;;2.30;99.90;;;;;;5086249;28;19912;-69
2023/01/17 13:13:22;;;;;;;;;;;2.40;99.90;;;;;;5096087;28;19939;-69
2023/01/17 13:15:50;;;;;;;;;;;2.40;99.90;;;;;;5084867;28;19904;-70
2023/01/17 13:18:21;;;;;;;;;;;4.20;99.90;;;;;;5078194;28;19904;-68
2023/01/17 13:20:51;;;;;;;;;;;2.50;99.90;;;;;;5083097;28;20329;-69
2023/01/17 13:23:26;;;;;;;;;;;2.60;99.90;;;;;;5080973;28;19904;-69
2023/01/17 13:25:53;;;;;;;;;;;2.50;99.90;;;;;;5082534;28;20326;-69
2023/01/17 13:28:34;;;;;;;;;;;2.60;99.90;;;;;;5100083;28;19911;-71
2023/01/17 13:31:18;;;;;;;;;;;2.50;99.90;;;;;;5083403;28;19967;-68
2023/01/17 13:34:02;;;;;;;;;;;2.60;99.90;;;;;;5077700;28;19959;-69
2023/01/17 13:36:43;;;;;;;;;;;2.60;99.90;;;;;;5072421;28;19908;-69
2023/01/17 13:39:08;;;;;;;;;;;2.50;99.90;;;;;;5072043;28;19999;-68
2023/01/17 13:41:58;;;;;;;;;;;2.50;99.90;;;;;;5087570;28;20077;-69
2023/01/17 13:44:26;;;;;;;;;;;2.50;99.90;;;;;;5076402;28;19909;-69
2023/01/17 13:47:27;;;;;;;;;;;2.60;99.90;;;;;;5078796;28;19919;-69
2023/01/17 13:49:55;;;;;;;;;;;2.60;99.90;;;;;;5073931;28;19912;-69
2023/01/17 13:52:22;;;;;;;;;;;2.60;99.90;;;;;;5074043;28;19912;-69
2023/01/17 13:54:49;;;;;;;;;;;2.60;99.90;;;;;;5087503;28;19911;-69
2023/01/17 13:57:28;;;;;;;;;;;2.60;99.90;;;;;;5080886;28;19912;-70
2023/01/17 13:59:55;;;;;;;;;;;2.70;99.90;;;;;;5083172;28;20277;-69
2023/01/17 14:02:47;;;;;;;;;;;2.70;99.90;;;;;;5106042;28;19981;-69
2023/01/17 14:05:14;;;;;;;;;;;2.70;99.90;;;;;;5086778;28;19912;-69
2023/01/17 14:08:01;;;;;;;;;;;2.70;99.90;;;;;;5100648;28;19972;-68
2023/01/17 14:10:34;;;;;;;;;;;2.70;99.90;;;;;;5090290;28;19969;-69
2023/01/17 14:13:00;;;;;;;;;;;2.60;99.90;;;;;;5081245;28;19916;-68
2023/01/17 14:15:26;;;;;;;;;;;2.70;99.90;;;;;;5092076;28;19907;-69
2023/01/17 14:17:56;;;;;;;;;;;2.80;99.90;;;;;;5093503;28;19909;-68
2023/01/17 14:20:25;;;;;;;;;;;2.70;99.90;;;;;;5083872;28;19972;-68
2023/01/17 14:22:52;;;;;;;;;;;2.80;99.90;;;;;;5091065;28;19904;-69
2023/01/17 14:25:20;;;;;;;;;;;2.80;99.90;;;;;;5096394;28;19911;-69
2023/01/17 14:27:50;;;;;;;;;;;2.80;99.90;;;;;;5088099;28;19912;-69
2023/01/17 14:30:16;;;;;;;;;;;2.70;99.90;;;;;;5085427;28;19912;-68
2023/01/17 14:33:07;;;;;;;;;;;2.60;99.90;;;;;;5085570;28;20372;-69
2023/01/17 14:35:32;;;;;;;;;;;2.70;99.90;;;;;;5087437;28;19904;-69
2023/01/17 14:38:02;;;;;;;;;;;2.70;99.90;;;;;;5087349;28;19908;-69
2023/01/17 14:40:29;;;;;;;;;;;2.60;99.90;;;;;;5097456;28;20367;-69
2023/01/17 14:43:00;;;;;;;;;;;2.50;99.90;;;;;;5084128;28;19923;-69
2023/01/17 14:45:27;;;;;;;;;;;2.50;99.90;;;;;;5094808;28;19911;-68
2023/01/17 14:47:55;;;;;;;;;;;2.40;99.90;;;;;;5077544;28;19910;-68
2023/01/17 14:50:26;;;;;;;;;;;2.50;99.90;;;;;;5087301;28;19909;-70
2023/01/17 14:53:10;;;;;;;;;;;2.30;99.90;;;;;;5087869;28;20014;-69
2023/01/17 14:55:35;;;;;;;;;;;2.30;99.90;;;;;;5089332;28;19912;-70
2023/01/17 14:58:01;;;;;;;;;;;2.40;99.90;;;;;;5088651;28;19911;-70
2023/01/17 15:00:32;;;;;;;;;;;2.20;99.90;;;;;;5089377;28;20430;-70
2023/01/17 15:02:58;;;;;;;;;;;2.10;99.90;;;;;;5088494;28;19904;-69
2023/01/17 15:05:25;;;;;;;;;;;2.20;99.90;;;;;;5100062;28;19913;-70
2023/01/17 15:07:52;;;;;;;;;;;2.10;99.90;;;;;;5083183;28;19919;-69
2023/01/17 15:10:22;;;;;;;;;;;2.00;99.90;;;;;;5095145;28;19904;-70
2023/01/17 15:12:48;;;;;;;;;;;2.10;99.90;;;;;;5074062;28;19911;-70
2023/01/17 15:15:26;;;;;;;;;;;2.00;99.90;;;;;;5086096;28;19908;-69
2023/01/17 15:18:06;;;;;;;;;;;1.90;99.90;;;;;;5081172;28;19972;-70
2023/01/17 15:20:31;;;;;;;;;;;1.80;99.90;;;;;;5078879;28;19905;-69
2023/01/17 15:22:56;;;;;;;;;;;1.80;99.90;;;;;;5074733;28;19905;-69
2023/01/17 15:25:22;;;;;;;;;;;1.70;99.90;;;;;;5079848;28;20274;-70
2023/01/17 15:27:47;;;;;;;;;;;1.70;99.90;;;;;;5074217;28;20418;-69
2023/01/17 15:30:14;;;;;;;;;;;1.60;99.90;;;;;;5072788;28;19934;-70
2023/01/17 15:32:39;;;;;;;;;;;1.50;99.90;;;;;;5073511;28;20029;-70
2023/01/17 15:35:06;;;;;;;;;;;1.40;99.90;;;;;;5083410;28;20393;-69
2023/01/17 15:37:34;;;;;;;;;;;1.40;99.90;;;;;;5079057;28;19908;-69
2023/01/17 15:40:02;;;;;;;;;;;1.30;99.90;;;;;;5091018;28;20390;-69
2023/01/17 15:42:30;;;;;;;;;;;1.30;99.90;;;;;;5089433;28;20061;-69
2023/01/17 15:44:57;;;;;;;;;;;1.20;99.90;;;;;;5097611;28;19908;-69
2023/01/17 15:47:43;;;;;;;;;;;1.20;99.90;;;;;;5088814;28;20308;-69
2023/01/17 15:50:25;;;;;;;;;;;1.10;99.90;;;;;;5081747;28;19920;-69
2023/01/17 15:52:52;;;;;;;;;;;1.10;99.90;;;;;;5075953;28;19912;-69
2023/01/17 15:55:20;;;;;;;;;;;1.00;99.90;;;;;;5078596;28;19908;-69
2023/01/17 15:57:48;;;;;;;;;;;1.00;99.90;;;;;;5099830;28;19948;-69
2023/01/17 16:00:20;;;;;;;;;;;0.90;99.90;;;;;;5072902;28;20368;-70
2023/01/17 16:02:57;;;;;;;;;;;1.00;99.90;;;;;;5073776;28;19904;-69
2023/01/17 16:05:23;;;;;;;;;;;0.80;99.90;;;;;;5071987;28;19915;-70